createdAt,value
2022-09-01T18:29:38.247Z,64.88
2022-09-01T18:30:52.577Z,66.08
2022-09-01T18:31:39.255Z,64.88
2022-09-01T18:32:39.182Z,64.18
2022-09-01T18:33:39.174Z,65.31
2022-09-01T18:34:39.149Z,64.51
2022-09-01T18:35:40.688Z,64.81
2022-09-01T18:36:39.404Z,64.11
2022-09-01T18:37:39.361Z,66.21
2022-09-01T18:38:39.105Z,65.51
2022-09-01T18:39:39.115Z,66.01
2022-09-01T18:40:39.151Z,65.51
2022-09-01T18:41:39.077Z,65.81
2022-09-01T18:42:39.072Z,66.91
2022-09-01T18:43:39.079Z,65.21
2022-09-01T18:44:39.040Z,65.71
2022-09-01T18:45:39.055Z,66.31
2022-09-01T18:46:39.065Z,65.31
2022-09-01T18:47:39.025Z,66.14
2022-09-01T18:48:39.014Z,67.75
2022-09-01T18:49:38.996Z,67.14
2022-09-01T18:50:41.368Z,66.44
2022-09-01T18:51:41.013Z,66.75
2022-09-01T18:52:38.971Z,66.85
2022-09-01T18:53:38.953Z,67.48
2022-09-01T18:54:38.948Z,66.67
2022-09-01T18:55:38.945Z,67.78
2022-09-01T18:56:38.936Z,68.79
2022-09-01T18:57:38.925Z,67.88
2022-09-01T18:58:38.899Z,67.28
2022-09-01T18:59:38.891Z,67.48
2022-09-01T19:00:38.894Z,67.78
2022-09-01T19:01:38.991Z,66.88
2022-09-01T19:02:39.020Z,66.98
2022-09-01T19:03:38.860Z,66.78
2022-09-01T19:04:38.862Z,67.88
2022-09-01T19:05:38.869Z,66.88
2022-09-01T19:06:38.831Z,66.98
2022-09-01T19:07:38.820Z,67.78
2022-09-01T19:08:38.851Z,67.28
2022-09-01T19:09:38.791Z,68.59
2022-09-01T19:10:38.793Z,67.88
2022-09-01T19:11:38.765Z,66.47
2022-09-01T19:12:38.749Z,67.18
2022-09-01T19:13:38.757Z,67.28
2022-09-01T19:14:38.736Z,68.49
2022-09-01T19:15:38.789Z,68.02
2022-09-01T19:16:38.726Z,68.68
2022-09-01T19:17:38.703Z,67.82
2022-09-01T19:18:38.687Z,69.62
2022-09-01T19:19:38.682Z,68.62
2022-09-01T19:20:38.692Z,68.32
2022-09-01T19:21:38.657Z,67.01
2022-09-01T19:22:38.664Z,68.92
2022-09-01T19:23:38.653Z,68.21
2022-09-01T19:24:38.633Z,68.41
2022-09-01T19:25:38.637Z,69.02
2022-09-01T19:26:38.616Z,69.62
2022-09-01T19:27:38.595Z,70.03
2022-09-01T19:28:38.591Z,69.32
2022-09-01T19:29:39.772Z,69.72
2022-09-01T19:30:40.152Z,69.15
2022-09-01T19:31:40.844Z,68.55
2022-09-01T19:32:40.681Z,70.66
2022-09-01T19:33:38.543Z,70.66
2022-09-01T19:34:39.230Z,70.76
2022-09-01T19:35:38.531Z,69.45
2022-09-01T19:36:38.514Z,69.76
2022-09-01T19:37:38.499Z,69.85
2022-09-01T19:38:38.493Z,69.85
2022-09-01T19:39:38.466Z,69.85
2022-09-01T19:40:38.491Z,70.66
2022-09-01T19:41:38.457Z,70.59
2022-09-01T19:42:38.438Z,70.39
2022-09-01T19:43:38.437Z,70.19
2022-09-01T19:44:38.418Z,70.70
2022-09-01T19:45:38.433Z,71.00
2022-09-01T19:46:38.473Z,70.50
2022-09-01T19:47:38.405Z,71.00
2022-09-01T19:48:38.434Z,71.20
2022-09-01T19:49:38.410Z,70.89
2022-09-01T19:50:38.356Z,70.39
2022-09-01T19:51:38.370Z,71.09
2022-09-01T19:52:38.333Z,69.49
2022-09-01T19:53:38.325Z,71.40
2022-09-01T19:54:38.312Z,70.09
2022-09-01T19:55:38.328Z,71.00
2022-09-01T19:56:39.787Z,70.29
2022-09-01T19:57:38.276Z,70.50
2022-09-01T19:58:38.271Z,70.39
2022-09-01T19:59:38.256Z,70.39
2022-09-01T20:00:38.270Z,70.70
2022-09-01T20:01:38.404Z,71.40
2022-09-01T20:02:38.371Z,71.80
2022-09-01T20:03:38.220Z,71.70
2022-09-01T20:04:38.283Z,70.09
2022-09-01T20:05:38.273Z,72.41
2022-09-01T20:06:38.217Z,69.59
2022-09-01T20:07:38.244Z,70.09
2022-09-01T20:08:38.182Z,70.89
2022-09-01T20:09:38.148Z,70.79
2022-09-01T20:10:38.162Z,69.38
2022-09-01T20:11:39.029Z,69.89
2022-09-01T20:12:38.209Z,69.99
2022-09-01T20:13:38.114Z,70.50
2022-09-01T20:14:38.160Z,71.20
2022-09-01T20:15:38.139Z,70.70
2022-09-01T20:16:38.079Z,70.50
2022-09-01T20:17:38.080Z,71.80
2022-09-01T20:18:39.256Z,71.00
2022-09-01T20:19:38.052Z,71.50
2022-09-01T20:20:38.075Z,70.70
2022-09-01T20:21:38.034Z,72.20
2022-09-01T20:22:38.024Z,71.30
2022-09-01T20:23:38.017Z,71.09
2022-09-01T20:24:37.997Z,70.59
2022-09-01T20:25:37.998Z,70.73
2022-09-01T20:26:37.990Z,72.03
2022-09-01T20:27:37.970Z,71.13
2022-09-01T20:28:37.954Z,71.23
2022-09-01T20:29:37.953Z,71.03
2022-09-01T20:30:39.654Z,71.94
2022-09-01T20:31:37.984Z,70.53
2022-09-01T20:32:38.007Z,70.93
2022-09-01T20:33:37.899Z,70.53
2022-09-01T20:34:37.894Z,72.24
2022-09-01T20:35:39.722Z,72.14
2022-09-01T20:36:37.884Z,71.53
2022-09-01T20:37:37.867Z,72.24
2022-09-01T20:38:42.038Z,70.83
2022-09-01T20:39:37.835Z,71.63
2022-09-01T20:40:37.924Z,70.83
2022-09-01T20:41:39.702Z,71.33
2022-09-01T20:42:37.807Z,71.00
2022-09-01T20:43:37.807Z,70.93
2022-09-01T20:44:37.794Z,71.53
2022-09-01T20:45:37.792Z,71.43
2022-09-01T20:46:37.800Z,72.14
2022-09-01T20:47:37.748Z,72.84
2022-09-01T20:48:37.756Z,72.03
2022-09-01T20:49:37.741Z,71.43
2022-09-01T20:50:42.613Z,72.84
2022-09-01T20:51:37.722Z,72.03
2022-09-01T20:52:37.711Z,71.43
2022-09-01T20:53:37.742Z,71.23
2022-09-01T20:54:37.741Z,72.44
2022-09-01T20:55:37.812Z,72.24
2022-09-01T20:56:37.658Z,71.63
2022-09-01T20:57:37.644Z,72.74
2022-09-01T20:58:37.658Z,72.57
2022-09-01T20:59:37.647Z,72.97
2022-09-01T21:00:37.640Z,72.57
2022-09-01T21:01:37.652Z,71.97
2022-09-01T21:02:37.683Z,71.67
2022-09-01T21:03:37.592Z,72.57
2022-09-01T21:04:37.597Z,71.77
2022-09-01T21:05:41.157Z,71.77
2022-09-01T21:06:37.558Z,72.97
2022-09-01T21:07:37.540Z,72.88
2022-09-01T21:08:37.542Z,71.47
2022-09-01T21:09:37.529Z,71.77
2022-09-01T21:10:37.543Z,71.97
2022-09-01T21:11:37.509Z,73.18
2022-09-01T21:12:37.503Z,73.58
2022-09-01T21:13:37.494Z,72.67
2022-09-01T21:14:37.469Z,72.91
2022-09-01T21:15:37.454Z,72.71
2022-09-01T21:16:37.531Z,72.51
2022-09-01T21:17:37.455Z,72.81
2022-09-01T21:18:37.432Z,72.61
2022-09-01T21:19:37.428Z,74.42
2022-09-01T21:20:37.405Z,73.61
2022-09-01T21:21:37.407Z,73.21
2022-09-01T21:22:37.399Z,73.11
2022-09-01T21:23:37.379Z,72.81
2022-09-01T21:24:37.364Z,71.50
2022-09-01T21:25:37.358Z,72.51
2022-09-01T21:26:37.370Z,73.41
2022-09-01T21:27:37.338Z,73.11
2022-09-01T21:28:37.422Z,73.01
2022-09-01T21:29:37.345Z,73.21
2022-09-01T21:30:37.368Z,72.71
2022-09-01T21:31:37.327Z,71.60
2022-09-01T21:32:37.287Z,71.40
2022-09-01T21:33:37.266Z,72.00
2022-09-01T21:34:37.279Z,71.91
2022-09-01T21:35:37.376Z,71.00
2022-09-01T21:36:37.612Z,70.70
2022-09-01T21:37:37.608Z,73.11
2022-09-01T21:38:37.219Z,73.11
2022-09-01T21:39:37.349Z,72.81
2022-09-01T21:40:37.480Z,72.51
2022-09-01T21:41:38.393Z,73.01
2022-09-01T21:42:37.707Z,72.91
2022-09-01T21:43:37.189Z,73.95
2022-09-01T21:44:37.188Z,73.75
2022-09-01T21:45:37.176Z,73.35
2022-09-01T21:46:37.170Z,73.14
2022-09-01T21:47:37.531Z,73.45
2022-09-01T21:48:37.121Z,71.94
2022-09-01T21:49:37.098Z,72.14
2022-09-01T21:50:37.103Z,72.04
2022-09-01T21:51:37.091Z,73.05
2022-09-01T21:52:37.079Z,73.55
2022-09-01T21:53:37.061Z,72.54
2022-09-01T21:54:37.056Z,73.05
2022-09-01T21:55:37.035Z,72.04
2022-09-01T21:56:37.053Z,74.05
2022-09-01T21:57:37.062Z,73.85
2022-09-01T21:58:37.012Z,74.79
2022-09-01T21:59:36.988Z,72.78
2022-09-01T22:00:37.032Z,72.78
2022-09-01T22:01:37.103Z,73.58
2022-09-01T22:02:37.013Z,73.58
2022-09-01T22:03:36.956Z,74.19
2022-09-01T22:04:36.948Z,73.58
2022-09-01T22:05:36.929Z,73.28
2022-09-01T22:06:36.942Z,73.79
2022-09-01T22:07:36.908Z,74.29
2022-09-01T22:08:36.899Z,73.92
2022-09-01T22:09:36.901Z,75.23
2022-09-01T22:10:36.894Z,75.43
2022-09-01T22:11:36.897Z,74.63
2022-09-01T22:12:36.884Z,74.32
2022-09-01T22:13:36.847Z,74.12
2022-09-01T22:14:36.852Z,74.02
2022-09-01T22:15:36.835Z,74.93
2022-09-01T22:16:36.879Z,74.02
2022-09-01T22:17:36.803Z,74.73
2022-09-01T22:18:36.795Z,74.43
2022-09-01T22:19:36.803Z,75.98
2022-09-01T22:20:36.774Z,73.96
2022-09-01T22:21:36.792Z,74.56
2022-09-01T22:22:36.764Z,75.37
2022-09-01T22:23:36.752Z,75.37
2022-09-01T22:24:36.746Z,75.16
2022-09-01T22:25:36.735Z,74.46
2022-09-01T22:26:36.728Z,74.36
2022-09-01T22:27:36.718Z,76.58
2022-09-01T22:28:36.780Z,76.28
2022-09-01T22:29:36.690Z,74.66
2022-09-01T22:30:36.759Z,75.27
2022-09-01T22:31:36.672Z,76.07
2022-09-01T22:32:36.669Z,75.20
2022-09-01T22:33:38.886Z,77.22
2022-09-01T22:34:36.628Z,75.31
2022-09-01T22:35:36.628Z,75.31
2022-09-01T22:36:36.635Z,75.31
2022-09-01T22:37:36.610Z,75.81
2022-09-01T22:38:36.584Z,76.21
2022-09-01T22:39:36.579Z,75.81
2022-09-01T22:40:36.593Z,76.01
2022-09-01T22:41:36.567Z,74.90
2022-09-01T22:42:36.554Z,76.42
2022-09-01T22:43:36.542Z,76.51
2022-09-01T22:44:36.524Z,76.04
2022-09-01T22:45:36.559Z,76.65
2022-09-01T22:46:36.526Z,77.15
2022-09-01T22:47:37.421Z,77.36
2022-09-01T22:48:36.482Z,77.15
2022-09-01T22:49:36.479Z,78.57
2022-09-01T22:50:36.457Z,78.57
2022-09-01T22:51:36.477Z,77.46
2022-09-01T22:52:36.461Z,76.86
2022-09-01T22:53:36.427Z,76.75
2022-09-01T22:54:36.418Z,76.59
2022-09-01T22:55:36.402Z,76.25
2022-09-01T22:56:36.414Z,77.66
2022-09-01T22:57:36.389Z,78.17
2022-09-01T22:58:36.388Z,79.08
2022-09-01T22:59:36.359Z,78.27
2022-09-01T23:00:36.364Z,78.97
2022-09-01T23:01:36.464Z,77.56
2022-09-01T23:02:36.427Z,76.39
2022-09-01T23:03:36.318Z,76.75
2022-09-01T23:04:36.335Z,78.10
2022-09-01T23:05:36.306Z,77.56
2022-09-01T23:06:36.325Z,77.19
2022-09-01T23:07:36.300Z,78.41
2022-09-01T23:08:36.278Z,77.70
2022-09-01T23:09:36.270Z,78.61
2022-09-01T23:10:36.266Z,78.17
2022-09-01T23:11:36.272Z,79.99
2022-09-01T23:12:36.254Z,78.88
2022-09-01T23:13:36.241Z,79.58
2022-09-01T23:14:36.222Z,79.01
2022-09-01T23:15:36.226Z,78.50
2022-09-01T23:16:36.282Z,78.71
2022-09-01T23:17:36.171Z,79.72
2022-09-01T23:18:36.167Z,79.01
2022-09-01T23:19:36.166Z,79.41
2022-09-01T23:20:36.146Z,78.10
2022-09-01T23:21:36.152Z,79.32
2022-09-01T23:22:36.136Z,78.77
2022-09-01T23:23:36.120Z,78.77
2022-09-01T23:24:36.112Z,78.97
2022-09-01T23:25:36.103Z,78.67
2022-09-01T23:26:36.113Z,77.86
2022-09-01T23:27:36.074Z,79.08
2022-09-01T23:28:36.082Z,78.97
2022-09-01T23:29:36.043Z,78.17
2022-09-01T23:30:36.038Z,77.86
2022-09-01T23:31:36.130Z,78.17
2022-09-01T23:32:36.046Z,77.70
2022-09-01T23:33:36.019Z,77.60
2022-09-01T23:34:36.009Z,77.39
2022-09-01T23:35:35.999Z,78.27
2022-09-01T23:36:36.006Z,78.91
2022-09-01T23:37:35.965Z,76.75
2022-09-01T23:38:35.956Z,76.25
2022-09-01T23:39:35.939Z,78.47
2022-09-01T23:40:35.974Z,78.27
2022-09-01T23:41:35.939Z,78.77
2022-09-01T23:42:35.919Z,77.97
2022-09-01T23:43:35.905Z,77.26
2022-09-01T23:44:35.893Z,77.76
2022-09-01T23:45:35.891Z,77.76
2022-09-01T23:46:35.894Z,78.47
2022-09-01T23:47:35.856Z,77.76
2022-09-01T23:48:35.847Z,77.46
2022-09-01T23:49:35.849Z,78.27
2022-09-01T23:50:35.834Z,76.55
2022-09-01T23:51:35.845Z,77.50
2022-09-01T23:52:35.807Z,77.60
2022-09-01T23:53:35.808Z,77.70
2022-09-01T23:54:35.779Z,77.90
2022-09-01T23:55:35.779Z,76.79
2022-09-01T23:56:35.799Z,76.99
2022-09-01T23:57:35.768Z,76.04
2022-09-01T23:58:35.740Z,76.25
2022-09-01T23:59:35.743Z,76.55
